sensor_id;sensor_type;location;lat;lon;timestamp;temperature;humidity
15239;DHT22;7722;53.274;9.500;2022-08-11T00:01:47;17.40;99.90
15239;DHT22;7722;53.274;9.500;2022-08-11T00:04:15;17.30;99.90
15239;DHT22;7722;53.274;9.500;2022-08-11T00:06:44;17.30;99.90
15239;DHT22;7722;53.274;9.500;2022-08-11T00:09:16;17.20;99.90
15239;DHT22;7722;53.274;9.500;2022-08-11T00:11:45;17.20;99.90
15239;DHT22;7722;53.274;9.500;2022-08-11T00:14:17;17.20;99.90
15239;DHT22;7722;53.274;9.500;2022-08-11T00:16:53;17.20;99.90
15239;DHT22;7722;53.274;9.500;2022-08-11T00:19:23;17.10;99.90
15239;DHT22;7722;53.274;9.500;2022-08-11T00:21:51;17.00;99.90
15239;DHT22;7722;53.274;9.500;2022-08-11T00:24:19;17.00;99.90
15239;DHT22;7722;53.274;9.500;2022-08-11T00:26:48;16.90;99.90
15239;DHT22;7722;53.274;9.500;2022-08-11T00:29:18;16.90;99.90
15239;DHT22;7722;53.274;9.500;2022-08-11T00:31:48;16.90;99.90
15239;DHT22;7722;53.274;9.500;2022-08-11T00:34:19;16.80;99.90
15239;DHT22;7722;53.274;9.500;2022-08-11T00:36:51;16.80;99.90
15239;DHT22;7722;53.274;9.500;2022-08-11T00:39:21;16.80;99.90
15239;DHT22;7722;53.274;9.500;2022-08-11T00:42:03;16.80;99.90
15239;DHT22;7722;53.274;9.500;2022-08-11T00:44:46;16.80;99.90
15239;DHT22;7722;53.274;9.500;2022-08-11T00:47:26;16.90;99.90
15239;DHT22;7722;53.274;9.500;2022-08-11T00:50:02;16.80;99.90
15239;DHT22;7722;53.274;9.500;2022-08-11T00:56:02;16.70;99.90
15239;DHT22;7722;53.274;9.500;2022-08-11T01:01:56;16.50;99.90
15239;DHT22;7722;53.274;9.500;2022-08-11T01:07:56;16.40;99.90
15239;DHT22;7722;53.274;9.500;2022-08-11T01:10:50;16.30;99.90
15239;DHT22;7722;53.274;9.500;2022-08-11T01:13:42;16.30;99.90
15239;DHT22;7722;53.274;9.500;2022-08-11T01:22:40;16.20;99.90
15239;DHT22;7722;53.274;9.500;2022-08-11T01:32:13;16.20;99.90
15239;DHT22;7722;53.274;9.500;2022-08-11T01:35:20;16.30;99.90
15239;DHT22;7722;53.274;9.500;2022-08-11T01:38:37;16.30;99.90
15239;DHT22;7722;53.274;9.500;2022-08-11T01:45:09;16.20;99.90
15239;DHT22;7722;53.274;9.500;2022-08-11T01:47:46;16.00;99.90
15239;DHT22;7722;53.274;9.500;2022-08-11T01:50:31;16.00;99.90
15239;DHT22;7722;53.274;9.500;2022-08-11T01:53:20;15.90;99.90
15239;DHT22;7722;53.274;9.500;2022-08-11T01:55:58;15.80;99.90
15239;DHT22;7722;53.274;9.500;2022-08-11T01:58:32;15.80;99.90
15239;DHT22;7722;53.274;9.500;2022-08-11T02:01:09;15.80;99.90
15239;DHT22;7722;53.274;9.500;2022-08-11T02:03:45;15.80;99.90
15239;DHT22;7722;53.274;9.500;2022-08-11T02:06:28;15.70;99.90
15239;DHT22;7722;53.274;9.500;2022-08-11T02:09:07;15.70;99.90
15239;DHT22;7722;53.274;9.500;2022-08-11T02:11:38;15.50;99.90
15239;DHT22;7722;53.274;9.500;2022-08-11T02:14:16;15.40;99.90
15239;DHT22;7722;53.274;9.500;2022-08-11T02:17:04;15.30;99.90
15239;DHT22;7722;53.274;9.500;2022-08-11T02:19:44;15.30;99.90
15239;DHT22;7722;53.274;9.500;2022-08-11T02:22:41;15.20;99.90
15239;DHT22;7722;53.274;9.500;2022-08-11T02:25:35;15.00;99.90
15239;DHT22;7722;53.274;9.500;2022-08-11T02:28:08;15.00;99.90
15239;DHT22;7722;53.274;9.500;2022-08-11T02:30:38;14.90;99.90
15239;DHT22;7722;53.274;9.500;2022-08-11T02:33:19;14.80;99.90
15239;DHT22;7722;53.274;9.500;2022-08-11T02:35:57;14.80;99.90
15239;DHT22;7722;53.274;9.500;2022-08-11T02:38:33;14.70;99.90
15239;DHT22;7722;53.274;9.500;2022-08-11T02:41:11;14.60;99.90
15239;DHT22;7722;53.274;9.500;2022-08-11T02:44:07;14.60;99.90
15239;DHT22;7722;53.274;9.500;2022-08-11T02:46:44;14.50;99.90
15239;DHT22;7722;53.274;9.500;2022-08-11T02:49:25;14.50;99.90
15239;DHT22;7722;53.274;9.500;2022-08-11T02:52:18;14.50;99.90
15239;DHT22;7722;53.274;9.500;2022-08-11T02:54:55;14.50;99.90
15239;DHT22;7722;53.274;9.500;2022-08-11T02:57:32;14.40;99.90
15239;DHT22;7722;53.274;9.500;2022-08-11T03:00:04;14.40;99.90
15239;DHT22;7722;53.274;9.500;2022-08-11T03:02:48;14.40;99.90
15239;DHT22;7722;53.274;9.500;2022-08-11T03:05:26;14.30;99.90
15239;DHT22;7722;53.274;9.500;2022-08-11T03:08:12;14.20;99.90
15239;DHT22;7722;53.274;9.500;2022-08-11T03:10:50;14.20;99.90
15239;DHT22;7722;53.274;9.500;2022-08-11T03:13:35;14.20;99.90
15239;DHT22;7722;53.274;9.500;2022-08-11T03:16:26;14.20;99.90
15239;DHT22;7722;53.274;9.500;2022-08-11T03:19:20;14.20;99.90
15239;DHT22;7722;53.274;9.500;2022-08-11T03:22:02;14.10;99.90
15239;DHT22;7722;53.274;9.500;2022-08-11T03:24:39;14.10;99.90
15239;DHT22;7722;53.274;9.500;2022-08-11T03:27:24;14.10;99.90
15239;DHT22;7722;53.274;9.500;2022-08-11T03:30:02;14.10;99.90
15239;DHT22;7722;53.274;9.500;2022-08-11T03:32:36;14.10;99.90
15239;DHT22;7722;53.274;9.500;2022-08-11T03:35:08;14.00;99.90
15239;DHT22;7722;53.274;9.500;2022-08-11T03:37:42;14.10;99.90
15239;DHT22;7722;53.274;9.500;2022-08-11T03:40:31;14.00;99.90
15239;DHT22;7722;53.274;9.500;2022-08-11T03:43:27;14.00;99.90
15239;DHT22;7722;53.274;9.500;2022-08-11T03:46:05;14.00;99.90
15239;DHT22;7722;53.274;9.500;2022-08-11T03:48:42;14.00;99.90
15239;DHT22;7722;53.274;9.500;2022-08-11T03:51:18;13.90;99.90
15239;DHT22;7722;53.274;9.500;2022-08-11T03:54:10;13.90;99.90
15239;DHT22;7722;53.274;9.500;2022-08-11T03:57:07;13.90;99.90
15239;DHT22;7722;53.274;9.500;2022-08-11T04:00:21;13.90;99.90
15239;DHT22;7722;53.274;9.500;2022-08-11T04:03:35;13.90;99.90
15239;DHT22;7722;53.274;9.500;2022-08-11T04:06:39;13.90;99.90
15239;DHT22;7722;53.274;9.500;2022-08-11T04:12:45;13.90;99.90
15239;DHT22;7722;53.274;9.500;2022-08-11T04:15:49;13.90;99.90
15239;DHT22;7722;53.274;9.500;2022-08-11T04:18:46;13.90;99.90
15239;DHT22;7722;53.274;9.500;2022-08-11T04:21:46;13.90;99.90
15239;DHT22;7722;53.274;9.500;2022-08-11T04:24:31;13.90;99.90
15239;DHT22;7722;53.274;9.500;2022-08-11T04:27:34;13.90;99.90
15239;DHT22;7722;53.274;9.500;2022-08-11T04:30:06;13.90;99.90
15239;DHT22;7722;53.274;9.500;2022-08-11T04:33:08;13.90;99.90
15239;DHT22;7722;53.274;9.500;2022-08-11T04:35:49;13.90;99.90
15239;DHT22;7722;53.274;9.500;2022-08-11T04:41:53;14.00;99.90
15239;DHT22;7722;53.274;9.500;2022-08-11T04:45:19;14.10;99.90
15239;DHT22;7722;53.274;9.500;2022-08-11T04:48:05;14.10;99.90
15239;DHT22;7722;53.274;9.500;2022-08-11T04:51:29;14.10;99.90
15239;DHT22;7722;53.274;9.500;2022-08-11T04:54:27;14.20;99.90
15239;DHT22;7722;53.274;9.500;2022-08-11T04:57:19;14.30;99.90
15239;DHT22;7722;53.274;9.500;2022-08-11T05:00:07;14.40;99.90
15239;DHT22;7722;53.274;9.500;2022-08-11T05:03:32;14.50;99.90
15239;DHT22;7722;53.274;9.500;2022-08-11T05:09:33;14.70;99.90
15239;DHT22;7722;53.274;9.500;2022-08-11T05:12:27;14.80;99.90
15239;DHT22;7722;53.274;9.500;2022-08-11T05:14:56;14.80;99.90
15239;DHT22;7722;53.274;9.500;2022-08-11T05:17:44;14.90;99.90
15239;DHT22;7722;53.274;9.500;2022-08-11T05:20:45;15.10;99.90
15239;DHT22;7722;53.274;9.500;2022-08-11T05:23:32;15.20;99.90
15239;DHT22;7722;53.274;9.500;2022-08-11T05:26:18;15.30;99.90
15239;DHT22;7722;53.274;9.500;2022-08-11T05:29:24;15.50;99.90
15239;DHT22;7722;53.274;9.500;2022-08-11T05:32:12;15.60;99.90
15239;DHT22;7722;53.274;9.500;2022-08-11T05:35:02;15.80;99.90
15239;DHT22;7722;53.274;9.500;2022-08-11T05:37:40;15.90;99.90
15239;DHT22;7722;53.274;9.500;2022-08-11T05:40:22;16.10;99.90
15239;DHT22;7722;53.274;9.500;2022-08-11T05:43:11;16.20;99.90
15239;DHT22;7722;53.274;9.500;2022-08-11T05:45:56;16.30;99.90
15239;DHT22;7722;53.274;9.500;2022-08-11T05:48:42;16.40;99.90
15239;DHT22;7722;53.274;9.500;2022-08-11T05:51:33;16.60;99.90
15239;DHT22;7722;53.274;9.500;2022-08-11T05:54:20;16.70;99.90
15239;DHT22;7722;53.274;9.500;2022-08-11T05:57:05;16.80;99.90
15239;DHT22;7722;53.274;9.500;2022-08-11T05:59:33;16.90;99.90
15239;DHT22;7722;53.274;9.500;2022-08-11T06:02:02;17.00;99.90
15239;DHT22;7722;53.274;9.500;2022-08-11T06:04:30;17.10;99.90
15239;DHT22;7722;53.274;9.500;2022-08-11T06:06:59;17.20;99.90
15239;DHT22;7722;53.274;9.500;2022-08-11T06:09:31;17.30;99.90
15239;DHT22;7722;53.274;9.500;2022-08-11T06:12:01;17.40;99.90
15239;DHT22;7722;53.274;9.500;2022-08-11T06:14:29;17.60;99.90
15239;DHT22;7722;53.274;9.500;2022-08-11T06:16:59;17.60;99.90
15239;DHT22;7722;53.274;9.500;2022-08-11T06:19:35;17.80;99.90
15239;DHT22;7722;53.274;9.500;2022-08-11T06:22:03;17.90;99.90
15239;DHT22;7722;53.274;9.500;2022-08-11T06:24:32;18.00;99.90
15239;DHT22;7722;53.274;9.500;2022-08-11T06:27:00;18.20;99.90
15239;DHT22;7722;53.274;9.500;2022-08-11T06:29:31;18.30;99.90
15239;DHT22;7722;53.274;9.500;2022-08-11T06:32:00;18.50;99.90
15239;DHT22;7722;53.274;9.500;2022-08-11T06:34:37;18.60;99.90
15239;DHT22;7722;53.274;9.500;2022-08-11T06:37:17;18.80;99.90
15239;DHT22;7722;53.274;9.500;2022-08-11T06:39:51;18.90;99.90
15239;DHT22;7722;53.274;9.500;2022-08-11T06:42:35;19.10;99.90
15239;DHT22;7722;53.274;9.500;2022-08-11T06:45:13;19.30;99.90
15239;DHT22;7722;53.274;9.500;2022-08-11T06:47:44;19.40;99.90
15239;DHT22;7722;53.274;9.500;2022-08-11T06:50:16;19.60;99.90
15239;DHT22;7722;53.274;9.500;2022-08-11T06:53:03;19.80;99.90
15239;DHT22;7722;53.274;9.500;2022-08-11T06:55:34;20.00;99.90
15239;DHT22;7722;53.274;9.500;2022-08-11T06:58:21;20.10;99.90
15239;DHT22;7722;53.274;9.500;2022-08-11T07:01:08;20.40;99.90
15239;DHT22;7722;53.274;9.500;2022-08-11T07:03:41;20.60;99.90
15239;DHT22;7722;53.274;9.500;2022-08-11T07:06:21;20.80;99.90
15239;DHT22;7722;53.274;9.500;2022-08-11T07:09:32;21.10;99.90
15239;DHT22;7722;53.274;9.500;2022-08-11T07:12:41;21.30;99.90
15239;DHT22;7722;53.274;9.500;2022-08-11T07:15:31;21.50;99.90
15239;DHT22;7722;53.274;9.500;2022-08-11T07:18:13;21.60;99.90
15239;DHT22;7722;53.274;9.500;2022-08-11T07:21:11;21.90;99.90
15239;DHT22;7722;53.274;9.500;2022-08-11T07:23:58;22.20;99.90
15239;DHT22;7722;53.274;9.500;2022-08-11T07:26:48;22.40;99.90
15239;DHT22;7722;53.274;9.500;2022-08-11T07:29:35;22.50;99.90
15239;DHT22;7722;53.274;9.500;2022-08-11T07:32:23;22.70;99.90
15239;DHT22;7722;53.274;9.500;2022-08-11T07:34:55;22.80;99.90
15239;DHT22;7722;53.274;9.500;2022-08-11T07:37:25;23.00;99.90
15239;DHT22;7722;53.274;9.500;2022-08-11T07:39:58;23.10;99.50
15239;DHT22;7722;53.274;9.500;2022-08-11T07:42:29;23.30;99.70
15239;DHT22;7722;53.274;9.500;2022-08-11T07:44:58;23.60;98.80
15239;DHT22;7722;53.274;9.500;2022-08-11T07:47:45;23.80;98.50
15239;DHT22;7722;53.274;9.500;2022-08-11T07:50:31;23.90;98.10
15239;DHT22;7722;53.274;9.500;2022-08-11T07:53:16;23.90;98.00
15239;DHT22;7722;53.274;9.500;2022-08-11T07:55:44;24.00;97.80
15239;DHT22;7722;53.274;9.500;2022-08-11T07:58:15;24.00;97.90
15239;DHT22;7722;53.274;9.500;2022-08-11T08:01:01;24.30;97.00
15239;DHT22;7722;53.274;9.500;2022-08-11T08:03:46;24.40;97.00
15239;DHT22;7722;53.274;9.500;2022-08-11T08:06:32;24.60;97.10
15239;DHT22;7722;53.274;9.500;2022-08-11T08:09:19;24.90;95.80
15239;DHT22;7722;53.274;9.500;2022-08-11T08:12:05;25.30;94.70
15239;DHT22;7722;53.274;9.500;2022-08-11T08:14:54;25.30;95.30
15239;DHT22;7722;53.274;9.500;2022-08-11T08:17:41;25.70;94.50
15239;DHT22;7722;53.274;9.500;2022-08-11T08:20:19;26.00;93.80
15239;DHT22;7722;53.274;9.500;2022-08-11T08:22:50;26.20;93.30
15239;DHT22;7722;53.274;9.500;2022-08-11T08:25:22;26.30;93.70
15239;DHT22;7722;53.274;9.500;2022-08-11T08:27:50;26.40;92.80
15239;DHT22;7722;53.274;9.500;2022-08-11T08:30:17;26.10;91.50
15239;DHT22;7722;53.274;9.500;2022-08-11T08:33:03;26.20;92.70
15239;DHT22;7722;53.274;9.500;2022-08-11T08:35:30;26.30;91.80
15239;DHT22;7722;53.274;9.500;2022-08-11T08:37:58;26.70;91.10
15239;DHT22;7722;53.274;9.500;2022-08-11T08:40:25;26.80;90.40
15239;DHT22;7722;53.274;9.500;2022-08-11T08:42:55;26.80;91.00
15239;DHT22;7722;53.274;9.500;2022-08-11T08:45:23;27.00;90.10
15239;DHT22;7722;53.274;9.500;2022-08-11T08:47:56;26.80;89.70
15239;DHT22;7722;53.274;9.500;2022-08-11T08:50:28;26.90;87.90
15239;DHT22;7722;53.274;9.500;2022-08-11T08:53:10;26.90;88.60
15239;DHT22;7722;53.274;9.500;2022-08-11T08:55:38;27.00;87.10
15239;DHT22;7722;53.274;9.500;2022-08-11T08:58:08;26.70;87.60
15239;DHT22;7722;53.274;9.500;2022-08-11T09:00:43;27.20;88.20
15239;DHT22;7722;53.274;9.500;2022-08-11T09:03:11;27.20;82.80
15239;DHT22;7722;53.274;9.500;2022-08-11T09:05:40;27.30;82.30
15239;DHT22;7722;53.274;9.500;2022-08-11T09:08:08;27.50;82.10
15239;DHT22;7722;53.274;9.500;2022-08-11T09:10:37;27.60;84.20
15239;DHT22;7722;53.274;9.500;2022-08-11T09:13:05;27.70;80.70
15239;DHT22;7722;53.274;9.500;2022-08-11T09:15:33;28.00;82.30
15239;DHT22;7722;53.274;9.500;2022-08-11T09:18:02;28.00;77.70
15239;DHT22;7722;53.274;9.500;2022-08-11T09:20:35;28.00;76.30
15239;DHT22;7722;53.274;9.500;2022-08-11T09:23:05;27.90;75.30
15239;DHT22;7722;53.274;9.500;2022-08-11T09:25:54;28.00;78.80
15239;DHT22;7722;53.274;9.500;2022-08-11T09:28:41;27.70;73.20
15239;DHT22;7722;53.274;9.500;2022-08-11T09:31:08;27.50;73.30
15239;DHT22;7722;53.274;9.500;2022-08-11T09:33:38;27.90;74.10
15239;DHT22;7722;53.274;9.500;2022-08-11T09:36:06;27.70;75.60
15239;DHT22;7722;53.274;9.500;2022-08-11T09:38:50;28.10;74.30
15239;DHT22;7722;53.274;9.500;2022-08-11T09:41:35;28.30;72.00
15239;DHT22;7722;53.274;9.500;2022-08-11T09:44:04;28.30;71.60
15239;DHT22;7722;53.274;9.500;2022-08-11T09:46:52;28.20;71.30
15239;DHT22;7722;53.274;9.500;2022-08-11T09:49:22;28.40;71.10
15239;DHT22;7722;53.274;9.500;2022-08-11T09:51:50;28.60;71.80
15239;DHT22;7722;53.274;9.500;2022-08-11T09:54:36;28.80;68.90
15239;DHT22;7722;53.274;9.500;2022-08-11T09:57:21;28.80;69.20
15239;DHT22;7722;53.274;9.500;2022-08-11T10:00:28;29.20;69.00
15239;DHT22;7722;53.274;9.500;2022-08-11T10:06:14;29.40;70.50
15239;DHT22;7722;53.274;9.500;2022-08-11T10:09:18;29.30;69.80
15239;DHT22;7722;53.274;9.500;2022-08-11T10:11:48;29.20;68.90
15239;DHT22;7722;53.274;9.500;2022-08-11T10:14:31;29.70;67.70
15239;DHT22;7722;53.274;9.500;2022-08-11T10:17:19;29.40;66.70
15239;DHT22;7722;53.274;9.500;2022-08-11T10:19:48;29.00;67.80
15239;DHT22;7722;53.274;9.500;2022-08-11T10:22:17;28.90;69.80
15239;DHT22;7722;53.274;9.500;2022-08-11T10:25:02;28.80;68.50
15239;DHT22;7722;53.274;9.500;2022-08-11T10:27:49;29.30;67.40
15239;DHT22;7722;53.274;9.500;2022-08-11T10:30:24;29.90;67.90
15239;DHT22;7722;53.274;9.500;2022-08-11T10:33:10;29.70;65.20
15239;DHT22;7722;53.274;9.500;2022-08-11T10:35:56;29.90;66.00
15239;DHT22;7722;53.274;9.500;2022-08-11T10:38:24;29.50;63.00
15239;DHT22;7722;53.274;9.500;2022-08-11T10:40:53;30.10;64.40
15239;DHT22;7722;53.274;9.500;2022-08-11T10:46:27;29.60;59.70
15239;DHT22;7722;53.274;9.500;2022-08-11T10:49:12;29.80;60.90
15239;DHT22;7722;53.274;9.500;2022-08-11T10:51:39;29.80;59.60
15239;DHT22;7722;53.274;9.500;2022-08-11T10:54:24;30.10;61.20
15239;DHT22;7722;53.274;9.500;2022-08-11T10:57:09;29.60;60.90
15239;DHT22;7722;53.274;9.500;2022-08-11T10:59:56;29.90;62.40
15239;DHT22;7722;53.274;9.500;2022-08-11T11:02:23;29.80;59.20
15239;DHT22;7722;53.274;9.500;2022-08-11T11:04:58;29.70;58.80
15239;DHT22;7722;53.274;9.500;2022-08-11T11:07:35;29.70;60.10
15239;DHT22;7722;53.274;9.500;2022-08-11T11:10:05;30.60;57.80
15239;DHT22;7722;53.274;9.500;2022-08-11T11:12:38;31.10;58.50
15239;DHT22;7722;53.274;9.500;2022-08-11T11:15:26;31.10;56.90
15239;DHT22;7722;53.274;9.500;2022-08-11T11:18:16;30.90;58.00
15239;DHT22;7722;53.274;9.500;2022-08-11T11:20:48;31.40;58.60
15239;DHT22;7722;53.274;9.500;2022-08-11T11:23:19;30.80;58.10
15239;DHT22;7722;53.274;9.500;2022-08-11T11:32:16;31.30;58.10
15239;DHT22;7722;53.274;9.500;2022-08-11T11:35:19;31.40;55.90
15239;DHT22;7722;53.274;9.500;2022-08-11T11:37:49;31.30;56.60
15239;DHT22;7722;53.274;9.500;2022-08-11T11:40:19;31.60;57.70
15239;DHT22;7722;53.274;9.500;2022-08-11T11:42:48;31.50;57.50
15239;DHT22;7722;53.274;9.500;2022-08-11T11:45:17;31.70;55.90
15239;DHT22;7722;53.274;9.500;2022-08-11T11:47:47;31.90;55.90
15239;DHT22;7722;53.274;9.500;2022-08-11T11:50:22;31.40;55.60
15239;DHT22;7722;53.274;9.500;2022-08-11T11:52:51;31.20;56.90
15239;DHT22;7722;53.274;9.500;2022-08-11T11:55:20;31.80;53.30
15239;DHT22;7722;53.274;9.500;2022-08-11T11:57:49;31.80;56.10
15239;DHT22;7722;53.274;9.500;2022-08-11T12:00:34;32.10;54.10
15239;DHT22;7722;53.274;9.500;2022-08-11T12:03:20;31.90;54.20
15239;DHT22;7722;53.274;9.500;2022-08-11T12:05:47;31.60;53.50
15239;DHT22;7722;53.274;9.500;2022-08-11T12:08:17;31.20;54.50
15239;DHT22;7722;53.274;9.500;2022-08-11T12:10:47;31.30;54.10
15239;DHT22;7722;53.274;9.500;2022-08-11T12:13:15;31.40;53.70
15239;DHT22;7722;53.274;9.500;2022-08-11T12:16:01;31.30;52.90
15239;DHT22;7722;53.274;9.500;2022-08-11T12:18:33;31.10;55.70
15239;DHT22;7722;53.274;9.500;2022-08-11T12:21:02;31.50;52.80
15239;DHT22;7722;53.274;9.500;2022-08-11T12:23:30;31.80;53.40
15239;DHT22;7722;53.274;9.500;2022-08-11T12:26:17;32.40;53.80
15239;DHT22;7722;53.274;9.500;2022-08-11T12:29:03;33.00;53.00
15239;DHT22;7722;53.274;9.500;2022-08-11T12:31:31;32.60;51.80
15239;DHT22;7722;53.274;9.500;2022-08-11T12:34:01;32.20;51.30
15239;DHT22;7722;53.274;9.500;2022-08-11T12:36:30;32.20;53.50
15239;DHT22;7722;53.274;9.500;2022-08-11T12:38:58;32.70;50.90
15239;DHT22;7722;53.274;9.500;2022-08-11T12:41:26;33.30;50.80
15239;DHT22;7722;53.274;9.500;2022-08-11T12:44:11;33.60;50.50
15239;DHT22;7722;53.274;9.500;2022-08-11T12:47:02;32.40;49.60
15239;DHT22;7722;53.274;9.500;2022-08-11T12:49:35;33.20;50.00
15239;DHT22;7722;53.274;9.500;2022-08-11T12:52:24;33.40;50.00
15239;DHT22;7722;53.274;9.500;2022-08-11T12:54:58;32.80;49.70
15239;DHT22;7722;53.274;9.500;2022-08-11T12:57:28;32.80;50.90
15239;DHT22;7722;53.274;9.500;2022-08-11T13:00:14;32.80;49.90
15239;DHT22;7722;53.274;9.500;2022-08-11T13:02:59;33.00;50.50
15239;DHT22;7722;53.274;9.500;2022-08-11T13:05:47;33.30;49.80
15239;DHT22;7722;53.274;9.500;2022-08-11T13:08:20;32.60;49.60
15239;DHT22;7722;53.274;9.500;2022-08-11T13:10:49;33.60;49.70
15239;DHT22;7722;53.274;9.500;2022-08-11T13:13:35;34.50;49.10
15239;DHT22;7722;53.274;9.500;2022-08-11T13:16:03;33.80;49.70
15239;DHT22;7722;53.274;9.500;2022-08-11T13:18:31;33.80;48.80
15239;DHT22;7722;53.274;9.500;2022-08-11T13:21:01;34.00;48.70
15239;DHT22;7722;53.274;9.500;2022-08-11T13:23:28;33.70;50.10
15239;DHT22;7722;53.274;9.500;2022-08-11T13:25:56;34.10;49.30
15239;DHT22;7722;53.274;9.500;2022-08-11T13:28:23;34.10;52.10
15239;DHT22;7722;53.274;9.500;2022-08-11T13:30:51;35.20;49.20
15239;DHT22;7722;53.274;9.500;2022-08-11T13:33:40;34.90;46.80
15239;DHT22;7722;53.274;9.500;2022-08-11T13:36:09;34.30;48.50
15239;DHT22;7722;53.274;9.500;2022-08-11T13:38:37;34.70;47.70
15239;DHT22;7722;53.274;9.500;2022-08-11T13:41:06;34.10;47.30
15239;DHT22;7722;53.274;9.500;2022-08-11T13:43:54;34.70;47.00
15239;DHT22;7722;53.274;9.500;2022-08-11T13:46:22;33.90;48.30
15239;DHT22;7722;53.274;9.500;2022-08-11T13:48:50;34.30;48.20
15239;DHT22;7722;53.274;9.500;2022-08-11T13:51:20;34.30;47.70
15239;DHT22;7722;53.274;9.500;2022-08-11T13:54:00;33.70;48.10
15239;DHT22;7722;53.274;9.500;2022-08-11T13:56:28;34.20;49.10
15239;DHT22;7722;53.274;9.500;2022-08-11T13:58:56;34.20;48.20
15239;DHT22;7722;53.274;9.500;2022-08-11T14:01:27;34.10;47.80
15239;DHT22;7722;53.274;9.500;2022-08-11T14:03:58;33.60;48.90
15239;DHT22;7722;53.274;9.500;2022-08-11T14:06:30;34.70;48.10
15239;DHT22;7722;53.274;9.500;2022-08-11T14:08:59;35.00;46.40
15239;DHT22;7722;53.274;9.500;2022-08-11T14:11:33;34.70;47.00
15239;DHT22;7722;53.274;9.500;2022-08-11T14:14:21;34.70;46.90
15239;DHT22;7722;53.274;9.500;2022-08-11T14:16:51;34.60;46.20
15239;DHT22;7722;53.274;9.500;2022-08-11T14:19:24;34.10;46.70
15239;DHT22;7722;53.274;9.500;2022-08-11T14:22:14;33.60;47.20
15239;DHT22;7722;53.274;9.500;2022-08-11T14:24:44;33.70;48.50
15239;DHT22;7722;53.274;9.500;2022-08-11T14:27:15;33.50;48.10
15239;DHT22;7722;53.274;9.500;2022-08-11T14:29:44;33.30;48.80
15239;DHT22;7722;53.274;9.500;2022-08-11T14:32:13;33.70;47.30
15239;DHT22;7722;53.274;9.500;2022-08-11T14:34:43;33.80;48.70
15239;DHT22;7722;53.274;9.500;2022-08-11T14:37:13;34.20;47.10
15239;DHT22;7722;53.274;9.500;2022-08-11T14:39:43;34.50;46.20
15239;DHT22;7722;53.274;9.500;2022-08-11T14:42:14;34.00;47.70
15239;DHT22;7722;53.274;9.500;2022-08-11T14:45:01;34.10;46.00
15239;DHT22;7722;53.274;9.500;2022-08-11T14:47:58;33.90;46.60
15239;DHT22;7722;53.274;9.500;2022-08-11T14:50:28;34.10;45.90
15239;DHT22;7722;53.274;9.500;2022-08-11T14:52:59;34.20;46.40
15239;DHT22;7722;53.274;9.500;2022-08-11T14:55:28;33.40;47.10
15239;DHT22;7722;53.274;9.500;2022-08-11T14:58:17;32.90;47.60
15239;DHT22;7722;53.274;9.500;2022-08-11T15:00:45;34.00;46.70
15239;DHT22;7722;53.274;9.500;2022-08-11T15:03:13;33.50;47.10
15239;DHT22;7722;53.274;9.500;2022-08-11T15:05:46;33.20;46.70
15239;DHT22;7722;53.274;9.500;2022-08-11T15:08:16;32.80;47.30
15239;DHT22;7722;53.274;9.500;2022-08-11T15:10:44;32.90;47.80
15239;DHT22;7722;53.274;9.500;2022-08-11T15:13:14;33.10;47.50
15239;DHT22;7722;53.274;9.500;2022-08-11T15:15:43;32.70;47.80
15239;DHT22;7722;53.274;9.500;2022-08-11T15:18:28;32.40;48.10
15239;DHT22;7722;53.274;9.500;2022-08-11T15:20:57;32.50;48.10
15239;DHT22;7722;53.274;9.500;2022-08-11T15:23:43;31.90;48.70
15239;DHT22;7722;53.274;9.500;2022-08-11T15:26:31;32.00;49.00
15239;DHT22;7722;53.274;9.500;2022-08-11T15:29:19;31.90;48.70
15239;DHT22;7722;53.274;9.500;2022-08-11T15:32:06;32.20;47.90
15239;DHT22;7722;53.274;9.500;2022-08-11T15:34:57;32.30;48.00
15239;DHT22;7722;53.274;9.500;2022-08-11T15:37:43;32.20;48.00
15239;DHT22;7722;53.274;9.500;2022-08-11T15:40:16;31.90;48.20
15239;DHT22;7722;53.274;9.500;2022-08-11T15:43:05;31.60;49.10
15239;DHT22;7722;53.274;9.500;2022-08-11T15:45:53;31.80;48.20
15239;DHT22;7722;53.274;9.500;2022-08-11T15:48:28;32.00;48.10
15239;DHT22;7722;53.274;9.500;2022-08-11T15:51:00;32.20;47.80
15239;DHT22;7722;53.274;9.500;2022-08-11T15:53:32;32.30;47.50
15239;DHT22;7722;53.274;9.500;2022-08-11T15:56:02;32.40;47.20
15239;DHT22;7722;53.274;9.500;2022-08-11T15:58:33;32.20;47.90
15239;DHT22;7722;53.274;9.500;2022-08-11T16:01:20;32.00;47.30
15239;DHT22;7722;53.274;9.500;2022-08-11T16:04:09;32.00;47.40
15239;DHT22;7722;53.274;9.500;2022-08-11T16:06:44;31.90;48.20
15239;DHT22;7722;53.274;9.500;2022-08-11T16:09:16;32.00;48.00
15239;DHT22;7722;53.274;9.500;2022-08-11T16:11:45;32.10;47.90
15239;DHT22;7722;53.274;9.500;2022-08-11T16:14:15;32.20;48.20
15239;DHT22;7722;53.274;9.500;2022-08-11T16:17:01;31.90;47.30
15239;DHT22;7722;53.274;9.500;2022-08-11T16:19:29;31.70;47.30
15239;DHT22;7722;53.274;9.500;2022-08-11T16:22:02;31.60;47.40
15239;DHT22;7722;53.274;9.500;2022-08-11T16:24:33;31.60;47.90
15239;DHT22;7722;53.274;9.500;2022-08-11T16:27:03;31.50;47.10
15239;DHT22;7722;53.274;9.500;2022-08-11T16:29:32;31.60;47.30
15239;DHT22;7722;53.274;9.500;2022-08-11T16:32:04;31.70;46.10
15239;DHT22;7722;53.274;9.500;2022-08-11T16:34:49;31.60;46.90
15239;DHT22;7722;53.274;9.500;2022-08-11T16:37:35;31.50;46.80
15239;DHT22;7722;53.274;9.500;2022-08-11T16:40:20;31.70;47.20
15239;DHT22;7722;53.274;9.500;2022-08-11T16:42:51;31.50;46.80
15239;DHT22;7722;53.274;9.500;2022-08-11T16:45:37;31.50;47.00
15239;DHT22;7722;53.274;9.500;2022-08-11T16:48:25;31.40;46.70
15239;DHT22;7722;53.274;9.500;2022-08-11T16:50:54;31.20;47.70
15239;DHT22;7722;53.274;9.500;2022-08-11T16:53:24;31.50;47.20
15239;DHT22;7722;53.274;9.500;2022-08-11T16:55:53;31.80;46.60
15239;DHT22;7722;53.274;9.500;2022-08-11T16:58:23;31.90;45.90
15239;DHT22;7722;53.274;9.500;2022-08-11T17:01:08;32.20;46.30
15239;DHT22;7722;53.274;9.500;2022-08-11T17:03:42;32.20;45.40
15239;DHT22;7722;53.274;9.500;2022-08-11T17:06:29;32.50;45.40
15239;DHT22;7722;53.274;9.500;2022-08-11T17:09:18;32.40;45.40
15239;DHT22;7722;53.274;9.500;2022-08-11T17:12:05;32.10;46.00
15239;DHT22;7722;53.274;9.500;2022-08-11T17:14:54;31.80;45.60
15239;DHT22;7722;53.274;9.500;2022-08-11T17:17:27;31.70;46.60
15239;DHT22;7722;53.274;9.500;2022-08-11T17:19:59;31.70;47.40
15239;DHT22;7722;53.274;9.500;2022-08-11T17:22:29;31.80;46.90
15239;DHT22;7722;53.274;9.500;2022-08-11T17:25:14;31.80;47.20
15239;DHT22;7722;53.274;9.500;2022-08-11T17:27:42;32.10;47.50
15239;DHT22;7722;53.274;9.500;2022-08-11T17:30:12;32.10;46.80
15239;DHT22;7722;53.274;9.500;2022-08-11T17:32:43;32.40;47.00
15239;DHT22;7722;53.274;9.500;2022-08-11T17:35:32;32.40;48.10
15239;DHT22;7722;53.274;9.500;2022-08-11T17:38:02;32.60;46.50
15239;DHT22;7722;53.274;9.500;2022-08-11T17:40:31;32.70;46.30
15239;DHT22;7722;53.274;9.500;2022-08-11T17:43:02;32.50;46.80
15239;DHT22;7722;53.274;9.500;2022-08-11T17:45:48;32.60;46.30
15239;DHT22;7722;53.274;9.500;2022-08-11T17:48:35;32.70;47.10